Time;durP1;ratioP1;P1;durP2;ratioP2;P2;SDS_P1;SDS_P2;PMS_P1;PMS_P2;Temp;Humidity;BMP_temperature;BMP_pressure;BME280_temperature;BME280_humidity;BME280_pressure;Samples;Min_cycle;Max_cycle;Signal;HPM_P1;HPM_P2
2022/06/15 05:56:02;;;;;;;11.30;6.22;;;;;;;;;;5161264;27;20377;-84
2022/06/15 05:58:28;;;;;;;9.65;5.97;;;;;;;;;;5116317;27;20401;-83
2022/06/15 06:00:54;;;;;;;11.20;6.15;;;;;;;;;;5133330;27;20415;-83
2022/06/15 06:03:20;;;;;;;16.02;6.50;;;;;;;;;;5118865;27;20398;-83
2022/06/15 06:05:46;;;;;;;11.40;5.70;;;;;;;;;;5143888;27;20417;-83
2022/06/15 06:08:12;;;;;;;12.50;6.00;;;;;;;;;;5140810;27;20430;-83
2022/06/15 06:10:39;;;;;;;10.55;6.13;;;;;;;;;;5130287;27;20421;-83
2022/06/15 06:13:05;;;;;;;9.80;5.63;;;;;;;;;;5133829;27;20805;-83
2022/06/15 06:15:31;;;;;;;12.27;6.17;;;;;;;;;;5102298;27;20807;-83
2022/06/15 06:18:01;;;;;;;9.27;6.10;;;;;;;;;;5131403;27;20418;-83
2022/06/15 06:20:27;;;;;;;10.05;5.78;;;;;;;;;;5122256;27;20418;-84
2022/06/15 06:22:53;;;;;;;8.57;5.28;;;;;;;;;;5141183;27;20773;-85
2022/06/15 06:25:19;;;;;;;10.93;5.87;;;;;;;;;;5133175;27;20419;-84
2022/06/15 06:27:45;;;;;;;8.65;5.32;;;;;;;;;;5124695;27;20429;-84
2022/06/15 06:30:12;;;;;;;12.35;5.43;;;;;;;;;;5118427;28;20414;-84
2022/06/15 06:32:38;;;;;;;7.95;4.60;;;;;;;;;;5113063;28;20521;-80
2022/06/15 06:35:05;;;;;;;8.07;4.43;;;;;;;;;;5103445;27;20799;-80
2022/06/15 06:37:35;;;;;;;9.27;4.60;;;16.30;99.90;;;;;;5122810;27;20417;-81
2022/06/15 06:40:01;;;;;;;7.35;4.22;;;;;;;;;;5132234;27;20474;-80
2022/06/15 06:42:27;;;;;;;8.38;4.53;;;;;;;;;;5115327;28;20496;-81
2022/06/15 06:44:53;;;;;;;8.13;4.40;;;16.90;99.90;;;;;;5126203;27;20421;-81
2022/06/15 06:47:19;;;;;;;9.52;4.18;;;16.60;99.90;;;;;;5105142;28;20944;-81
2022/06/15 06:49:45;;;;;;;10.07;4.90;;;;;;;;;;5089846;28;20422;-80
2022/06/15 06:52:11;;;;;;;6.82;4.50;;;;;;;;;;5109005;28;20428;-81
2022/06/15 06:54:37;;;;;;;10.63;5.22;;;;;;;;;;5117758;28;20421;-81
2022/06/15 06:57:03;;;;;;;7.77;4.23;;;;;;;;;;5106323;28;20420;-81
2022/06/15 06:59:30;;;;;;;10.10;4.15;;;;;;;;;;5098946;28;20425;-80
2022/06/15 07:01:56;;;;;;;8.68;3.70;;;;;;;;;;5108497;28;20416;-81
2022/06/15 07:04:22;;;;;;;9.00;3.80;;;;;;;;;;5105005;28;20415;-81
2022/06/15 07:06:48;;;;;;;6.80;3.22;;;;;;;;;;5094043;28;20947;-81
2022/06/15 07:09:14;;;;;;;11.40;3.70;;;;;;;;;;5066820;28;20431;-80
2022/06/15 07:11:44;;;;;;;7.88;3.10;;;17.60;99.90;;;;;;5105531;28;20747;-80
2022/06/15 07:14:10;;;;;;;7.25;3.15;;;17.90;99.90;;;;;;5085917;28;20416;-81
2022/06/15 07:16:37;;;;;;;8.90;3.70;;;17.90;99.90;;;;;;5089417;28;20412;-82
2022/06/15 07:19:03;;;;;;;7.53;3.07;;;18.10;99.90;;;;;;5081812;28;20417;-76
2022/06/15 07:21:28;;;;;;;8.97;3.13;;;18.40;99.90;;;;;;5102956;28;20412;-77
2022/06/15 07:23:56;;;;;;;7.68;2.88;;;18.70;99.90;;;;;;5072597;28;20419;-79
2022/06/15 07:26:27;;;;;;;5.65;2.50;;;18.50;99.90;;;;;;5082949;28;20418;-79
2022/06/15 07:28:53;;;;;;;7.03;2.90;;;18.60;99.90;;;;;;5104237;28;20412;-80
2022/06/15 07:31:21;;;;;;;8.82;3.15;;;18.80;99.90;;;;;;5091548;28;20408;-79
2022/06/15 07:33:47;;;;;;;7.00;2.65;;;18.50;99.90;;;;;;5076881;28;20418;-80
2022/06/15 07:36:13;;;;;;;6.30;2.70;;;;;;;;;;5085389;28;20877;-80
2022/06/15 07:38:39;;;;;;;5.15;2.47;;;;;;;;;;5111786;28;20412;-80
2022/06/15 07:41:05;;;;;;;7.00;2.60;;;18.90;99.90;;;;;;5084239;28;20408;-82
2022/06/15 07:43:31;;;;;;;6.00;2.40;;;18.60;99.90;;;;;;5071911;28;20728;-81
2022/06/15 07:45:57;;;;;;;7.10;2.60;;;;;;;;;;5082320;28;20424;-81
2022/06/15 07:51:09;;;;;;;7.07;2.55;;;;;;;;;;5112008;28;20412;-80
2022/06/15 07:53:36;;;;;;;6.20;2.67;;;18.90;99.90;;;;;;5109644;28;20504;-80
2022/06/15 07:56:02;;;;;;;7.28;2.65;;;19.00;99.90;;;;;;5103446;28;20422;-81
2022/06/15 07:58:28;;;;;;;5.65;2.65;;;;;;;;;;5088506;28;20928;-80
2022/06/15 08:00:55;;;;;;;5.90;2.63;;;;;;;;;;5096746;28;20888;-80
2022/06/15 08:03:21;;;;;;;7.00;2.50;;;19.30;99.90;;;;;;5091905;28;20747;-80
2022/06/15 08:05:50;;;;;;;8.73;2.85;;;19.60;99.90;;;;;;5100290;28;20481;-80
2022/06/15 08:08:22;;;;;;;9.25;2.58;;;19.80;99.90;;;;;;5087121;28;20454;-80
2022/06/15 08:10:49;;;;;;;5.70;2.92;;;19.50;99.90;;;;;;5102124;28;20412;-81
2022/06/15 08:13:16;;;;;;;7.07;3.05;;;19.30;99.90;;;;;;5104498;28;20502;-80
2022/06/15 08:15:44;;;;;;;5.22;2.28;;;20.20;99.90;;;;;;5085132;28;20886;-80
2022/06/15 08:18:16;;;;;;;9.27;2.70;;;19.80;99.90;;;;;;5108665;28;20412;-80
2022/06/15 08:20:46;;;;;;;5.57;2.60;;;19.80;99.90;;;;;;5098462;28;20425;-80
2022/06/15 08:23:15;;;;;;;7.05;2.40;;;17.70;99.90;;;;;;5085892;28;20454;-80
2022/06/15 08:25:45;;;;;;;7.38;2.75;;;20.40;99.90;;;;;;5091238;28;20583;-80
2022/06/15 08:28:12;;;;;;;6.80;2.50;;;20.20;99.90;;;;;;5088255;28;20502;-80
2022/06/15 08:30:38;;;;;;;8.38;3.35;;;20.00;99.90;;;;;;5089147;28;20418;-80
2022/06/15 08:33:06;;;;;;;6.77;2.80;;;19.60;99.90;;;;;;5102466;28;20498;-79
2022/06/15 08:35:31;;;;;;;8.13;2.67;;;19.80;99.90;;;;;;5095452;28;21049;-79
2022/06/15 08:37:57;;;;;;;6.37;2.53;;;19.50;99.90;;;;;;5066069;28;20507;-80
2022/06/15 08:40:25;;;;;;;6.73;2.40;;;19.40;99.90;;;;;;5094189;28;20414;-78
2022/06/15 08:43:05;;;;;;;8.95;2.40;;;19.80;99.90;;;;;;5103696;28;20858;-79
2022/06/15 08:45:41;;;;;;;7.70;2.63;;;20.10;99.90;;;;;;5100189;28;20930;-78
2022/06/15 08:48:21;;;;;;;9.93;3.30;;;20.40;99.90;;;;;;5097084;28;20400;-80
2022/06/15 08:50:54;;;;;;;6.75;3.15;;;20.40;99.90;;;;;;5096489;28;20421;-79
2022/06/15 08:53:39;;;;;;;8.05;3.47;;;20.60;99.90;;;;;;5095485;28;20413;-78
2022/06/15 08:56:17;;;;;;;6.22;3.00;;;21.00;99.90;;;;;;5102016;28;20469;-80
2022/06/15 08:58:47;;;;;;;5.78;3.33;;;20.60;99.90;;;;;;5092928;28;20634;-79
2022/06/15 09:01:57;;;;;;;6.57;2.85;;;20.40;99.90;;;;;;5091525;28;20424;-79
2022/06/15 09:04:37;;;;;;;7.57;2.80;;;20.00;99.90;;;;;;5099112;27;20431;-79
2022/06/15 09:07:41;;;;;;;6.03;2.65;;;20.10;99.90;;;;;;5103954;28;20427;-79
2022/06/15 09:10:13;;;;;;;6.18;2.40;;;20.30;99.90;;;;;;5108275;28;20424;-78
2022/06/15 09:12:53;;;;;;;7.35;2.40;;;20.50;99.90;;;;;;5082665;28;20451;-79
2022/06/15 09:15:31;;;;;;;5.55;2.22;;;20.80;99.90;;;;;;5076436;28;20422;-78
2022/06/15 09:18:01;;;;;;;6.28;1.98;;;21.20;99.90;;;;;;5088915;28;20401;-78
2022/06/15 09:20:37;;;;;;;4.60;2.10;;;20.80;99.90;;;;;;5091376;28;20424;-80
2022/06/15 09:23:08;;;;;;;7.20;2.40;;;21.40;99.90;;;;;;5110471;27;20424;-79
2022/06/15 09:25:41;;;;;;;6.90;2.40;;;21.20;99.90;;;;;;5100751;28;20758;-79
2022/06/15 09:28:36;;;;;;;7.07;2.80;;;21.10;99.90;;;;;;5091063;28;20438;-79
2022/06/15 09:31:09;;;;;;;6.32;2.22;;;21.10;99.90;;;;;;5072322;28;20927;-80
2022/06/15 09:33:44;;;;;;;6.10;2.40;;;21.10;99.90;;;;;;5103727;28;20907;-80
2022/06/15 09:36:16;;;;;;;4.78;2.25;;;21.70;99.90;;;;;;5083163;28;20427;-79
2022/06/15 09:38:42;;;;;;;5.72;2.50;;;21.90;99.90;;;;;;5099424;28;21040;-79
2022/06/15 09:41:11;;;;;;;4.63;2.08;;;21.70;99.90;;;;;;5105052;28;20823;-80
2022/06/15 09:43:51;;;;;;;5.23;2.20;;;22.30;99.90;;;;;;5091163;28;20415;-80
2022/06/15 09:46:25;;;;;;;6.20;2.50;;;22.10;99.90;;;;;;5084491;28;20416;-80
2022/06/15 09:49:10;;;;;;;6.93;2.58;;;21.80;99.90;;;;;;5103699;28;20427;-81
2022/06/15 09:52:04;;;;;;;5.78;2.50;;;22.50;99.90;;;;;;5103216;28;20394;-81
2022/06/15 09:54:52;;;;;;;4.75;2.42;;;22.10;99.90;;;;;;5086405;28;20435;-81
2022/06/15 09:57:19;;;;;;;6.95;2.60;;;22.10;99.90;;;;;;5080947;28;20429;-81
2022/06/15 09:59:45;;;;;;;7.32;2.88;;;21.90;99.90;;;;;;5072969;28;20412;-80
2022/06/15 10:02:27;;;;;;;5.57;2.30;;;21.90;99.90;;;;;;5084891;28;20497;-81
2022/06/15 10:04:54;;;;;;;6.03;2.50;;;21.90;99.90;;;;;;5105796;28;20503;-82
2022/06/15 10:07:39;;;;;;;9.20;2.60;;;22.50;99.90;;;;;;5099226;28;20427;-80
2022/06/15 10:10:23;;;;;;;5.72;2.30;;;21.90;99.90;;;;;;5088460;28;20454;-80
2022/06/15 10:12:56;;;;;;;6.85;2.90;;;23.50;99.90;;;;;;5086080;28;20427;-81
2022/06/15 10:15:24;;;;;;;6.00;2.40;;;21.80;99.90;;;;;;5103308;28;20569;-81
2022/06/15 10:17:54;;;;;;;4.05;2.13;;;22.30;99.90;;;;;;5089065;28;20430;-82
2022/06/15 10:20:25;;;;;;;7.15;2.53;;;22.70;99.90;;;;;;5085708;28;20423;-80
2022/06/15 10:22:54;;;;;;;7.13;2.45;;;22.00;99.90;;;;;;5076893;28;20817;-80
2022/06/15 10:25:22;;;;;;;9.85;2.60;;;22.10;99.90;;;;;;5102013;28;20428;-80
2022/06/15 10:27:47;;;;;;;5.30;2.47;;;22.50;99.90;;;;;;5095073;28;20414;-78
2022/06/15 10:30:13;;;;;;;4.97;2.37;;;22.80;99.90;;;;;;5066568;28;20457;-80
2022/06/15 10:32:54;;;;;;;4.53;2.40;;;23.20;99.90;;;;;;5090376;28;20494;-81
2022/06/15 10:35:20;;;;;;;5.47;2.70;;;23.20;99.90;;;;;;5074900;28;20500;-81
2022/06/15 10:37:58;;;;;;;6.13;2.70;;;23.20;99.90;;;;;;5085372;28;20515;-81
2022/06/15 10:40:33;;;;;;;4.18;2.30;;;23.00;99.90;;;;;;5080714;28;20412;-79
2022/06/15 10:43:16;;;;;;;8.50;2.35;;;24.30;99.90;;;;;;5096745;28;20457;-81
2022/06/15 10:45:59;;;;;;;4.93;2.35;;;23.10;99.90;;;;;;5090939;28;20466;-81
2022/06/15 10:48:36;;;;;;;6.55;2.80;;;22.50;99.90;;;;;;5105162;28;20893;-80
2022/06/15 10:51:11;;;;;;;6.60;2.33;;;22.50;99.90;;;;;;5099124;28;20442;-80
2022/06/15 10:53:42;;;;;;;7.20;2.83;;;22.30;99.90;;;;;;5083944;28;20420;-80
2022/06/15 11:02:40;;;;;;;5.57;2.67;;;22.80;99.90;;;;;;5101245;28;20408;-79
2022/06/15 11:05:08;;;;;;;5.90;2.60;;;23.00;99.90;;;;;;5077867;28;20428;-80
2022/06/15 11:07:47;;;;;;;4.95;2.80;;;23.20;99.90;;;;;;5092080;28;20816;-79
2022/06/15 11:10:25;;;;;;;5.95;2.65;;;22.80;99.90;;;;;;5077524;28;20444;-78
2022/06/15 11:12:55;;;;;;;5.40;2.70;;;23.50;99.90;;;;;;5099494;28;20416;-77
2022/06/15 11:18:39;;;;;;;6.38;2.90;;;23.40;99.90;;;;;;5107019;28;20911;-78
2022/06/15 11:21:13;;;;;;;7.55;2.70;;;23.60;99.90;;;;;;5109620;28;20419;-77
2022/06/15 11:23:54;;;;;;;5.55;2.60;;;23.50;99.90;;;;;;5090600;28;20400;-75
2022/06/15 11:26:52;;;;;;;5.80;2.60;;;23.30;99.90;;;;;;5088709;28;20453;-74
2022/06/15 11:29:36;;;;;;;6.45;2.60;;;22.90;99.90;;;;;;5103594;28;20412;-78
2022/06/15 11:32:26;;;;;;;5.07;2.40;;;23.30;99.90;;;;;;5098366;28;20423;-80
2022/06/15 11:35:02;;;;;;;5.82;2.58;;;23.40;99.90;;;;;;5080429;28;20421;-79
2022/06/15 11:37:48;;;;;;;7.40;2.55;;;23.30;99.90;;;;;;5096011;28;20400;-80
2022/06/15 11:40:31;;;;;;;6.07;2.78;;;22.50;99.90;;;;;;5110093;28;20487;-80
2022/06/15 11:42:57;;;;;;;6.88;2.67;;;22.70;99.90;;;;;;5088958;28;20412;-80
2022/06/15 11:45:40;;;;;;;5.35;2.53;;;23.20;99.90;;;;;;5091369;28;20428;-80
2022/06/15 11:48:07;;;;;;;6.85;2.40;;;23.30;99.90;;;;;;5089411;28;20424;-80
2022/06/15 11:50:53;;;;;;;5.82;2.50;;;23.80;99.90;;;;;;5108265;28;20767;-80
2022/06/15 11:53:32;;;;;;;4.95;2.40;;;24.00;99.90;;;;;;5095347;28;20444;-80
2022/06/15 11:56:05;;;;;;;7.45;2.70;;;23.90;99.90;;;;;;5087319;28;20597;-80
2022/06/15 11:58:53;;;;;;;7.00;2.37;;;24.00;99.90;;;;;;5085640;28;20917;-81
2022/06/15 12:02:08;;;;;;;7.90;2.40;;;22.90;99.90;;;;;;5101808;28;20913;-80
2022/06/15 12:04:54;;;;;;;5.57;2.50;;;23.40;99.90;;;;;;5101555;28;20423;-80
2022/06/15 12:07:29;;;;;;;5.00;2.42;;;23.30;99.90;;;;;;5105870;28;20412;-80
2022/06/15 12:10:39;;;;;;;5.68;2.60;;;23.20;99.90;;;;;;5080246;28;20425;-80
2022/06/15 12:13:45;;;;;;;6.77;2.37;;;22.60;99.90;;;;;;5102438;28;20397;-80
2022/06/15 12:16:23;;;;;;;5.10;2.63;;;23.20;99.90;;;;;;5092878;28;20430;-80
2022/06/15 12:19:17;;;;;;;5.85;2.63;;;23.50;99.90;;;;;;5090968;28;20480;-80
2022/06/15 12:22:02;;;;;;;5.05;2.20;;;24.00;99.90;;;;;;5083960;28;20427;-80
2022/06/15 12:24:43;;;;;;;6.00;2.00;;;24.60;99.90;;;;;;5078359;28;20465;-81
2022/06/15 12:27:31;;;;;;;4.93;2.10;;;24.40;99.90;;;;;;5099091;28;20419;-81
2022/06/15 12:30:02;;;;;;;5.35;2.20;;;23.30;99.90;;;;;;5090046;28;20420;-80
2022/06/15 12:32:39;;;;;;;4.10;2.00;;;22.90;99.90;;;;;;5083595;28;20508;-81
2022/06/15 12:35:26;;;;;;;4.43;2.20;;;23.50;99.90;;;;;;5095025;28;20771;-79
2022/06/15 12:38:20;;;;;;;5.00;2.00;;;22.60;99.90;;;;;;5104614;28;20469;-81
2022/06/15 12:40:51;;;;;;;4.60;2.25;;;23.30;99.90;;;;;;5055186;28;20493;-81
2022/06/15 12:43:28;;;;;;;4.05;2.30;;;23.30;99.90;;;;;;5079629;28;20414;-80
2022/06/15 12:46:07;;;;;;;7.93;2.50;;;23.50;99.90;;;;;;5099478;28;20562;-80
2022/06/15 12:49:06;;;;;;;4.18;2.20;;;23.60;99.90;;;;;;5099615;28;20411;-81
2022/06/15 12:52:00;;;;;;;6.63;2.38;;;23.20;99.90;;;;;;5088238;28;20438;-80
2022/06/15 12:54:58;;;;;;;7.05;2.40;;;23.40;99.90;;;;;;5103059;28;20461;-80
2022/06/15 12:57:41;;;;;;;8.40;4.00;;;23.20;99.90;;;;;;5101603;28;20412;-80
2022/06/15 13:04:05;;;;;;;7.32;3.50;;;23.50;99.90;;;;;;5060713;28;20907;-78
2022/06/15 13:06:34;;;;;;;5.65;3.10;;;23.90;99.90;;;;;;5087951;28;20411;-79
2022/06/15 13:09:15;;;;;;;8.57;3.30;;;24.60;99.90;;;;;;5098277;28;20414;-81
2022/06/15 13:12:08;;;;;;;9.05;3.53;;;24.70;99.90;;;;;;5097615;28;20814;-79
2022/06/15 13:14:43;;;;;;;8.38;3.83;;;24.90;99.90;;;;;;5083920;28;20929;-80
2022/06/15 13:17:22;;;;;;;6.57;3.60;;;24.80;99.90;;;;;;5108252;28;20873;-78
2022/06/15 13:19:54;;;;;;;5.95;3.38;;;25.00;99.90;;;;;;5104232;28;20928;-78
2022/06/15 13:22:28;;;;;;;7.30;3.60;;;25.00;99.90;;;;;;5082358;28;20869;-78
2022/06/15 13:25:11;;;;;;;6.40;3.10;;;25.20;99.90;;;;;;5101612;28;20428;-78
2022/06/15 13:27:40;;;;;;;6.72;3.60;;;25.10;99.90;;;;;;5085022;28;20422;-78
2022/06/15 13:30:26;;;;;;;8.13;3.70;;;25.20;99.90;;;;;;5086181;28;20420;-78
2022/06/15 13:33:05;;;;;;;9.10;3.80;;;25.40;99.90;;;;;;5100608;28;20420;-79
2022/06/15 13:35:43;;;;;;;8.57;3.70;;;26.70;99.90;;;;;;5095122;28;20421;-79
2022/06/15 13:38:22;;;;;;;7.47;3.42;;;25.50;99.90;;;;;;5095059;28;20834;-79
2022/06/15 13:40:53;;;;;;;7.95;3.22;;;26.00;99.90;;;;;;5085563;28;20414;-79
2022/06/15 13:43:21;;;;;;;8.93;3.43;;;25.40;99.90;;;;;;5103210;28;20461;-79
2022/06/15 13:45:47;;;;;;;5.82;3.55;;;25.50;99.90;;;;;;5089922;28;20417;-79
2022/06/15 13:48:19;;;;;;;8.10;3.40;;;24.80;99.90;;;;;;5090943;28;20424;-79
2022/06/15 13:50:50;;;;;;;7.28;3.42;;;25.00;99.90;;;;;;5102218;28;20416;-79
2022/06/15 13:53:23;;;;;;;8.07;3.33;;;25.20;99.90;;;;;;5099416;28;20412;-79
2022/06/15 13:56:15;;;;;;;6.60;3.22;;;25.10;99.90;;;;;;5089497;28;20428;-81
2022/06/15 13:59:06;;;;;;;8.98;3.10;;;25.00;99.90;;;;;;5100115;28;20459;-80
2022/06/15 14:01:41;;;;;;;6.72;3.17;;;25.10;99.90;;;;;;5095726;28;20782;-79
2022/06/15 14:04:19;;;;;;;6.25;3.25;;;25.30;99.90;;;;;;5094014;28;20412;-79
2022/06/15 14:07:12;;;;;;;7.60;3.03;;;25.00;99.90;;;;;;5097145;28;20448;-79
2022/06/15 14:10:16;;;;;;;6.80;3.28;;;24.80;99.90;;;;;;5090784;28;20468;-79
2022/06/15 14:13:06;;;;;;;5.53;3.33;;;23.70;99.90;;;;;;5085940;28;20425;-79
2022/06/15 14:16:00;;;;;;;6.43;3.30;;;24.40;99.90;;;;;;5079367;28;20808;-79
2022/06/15 14:18:38;;;;;;;6.80;3.40;;;25.00;99.90;;;;;;5121051;27;20421;-80
2022/06/15 14:21:15;;;;;;;5.75;3.00;;;25.10;99.90;;;;;;5110628;28;20410;-79
2022/06/15 14:23:42;;;;;;;6.18;2.95;;;25.10;99.90;;;;;;5094946;28;21058;-79
2022/06/15 14:26:11;;;;;;;7.05;3.20;;;25.60;99.90;;;;;;5075813;28;20427;-79
2022/06/15 14:29:03;;;;;;;5.50;2.90;;;26.30;99.90;;;;;;5113217;27;20422;-80
2022/06/15 14:31:35;;;;;;;9.73;3.40;;;26.40;99.50;;;;;;5105545;27;20977;-79
2022/06/15 14:34:16;;;;;;;7.18;3.55;;;26.10;99.20;;;;;;5099311;27;20460;-79
2022/06/15 14:36:54;;;;;;;6.38;3.13;;;24.30;99.20;;;;;;5099181;27;20507;-78
2022/06/15 14:39:31;;;;;;;6.38;3.22;;;25.10;99.90;;;;;;5112881;27;20420;-79
2022/06/15 14:42:16;;;;;;;6.57;3.15;;;25.40;99.60;;;;;;5096361;27;20455;-79
2022/06/15 14:44:42;;;;;;;7.13;3.08;;;25.60;99.20;;;;;;5104538;28;20491;-78
2022/06/15 14:47:12;;;;;;;5.33;2.90;;;25.80;99.80;;;;;;5091882;27;20418;-78
2022/06/15 14:49:44;;;;;;;5.50;2.90;;;26.10;99.80;;;;;;5103372;28;20518;-78
2022/06/15 14:52:10;;;;;;;5.60;3.25;;;25.80;99.60;;;;;;5086175;27;20422;-79
2022/06/15 14:54:36;;;;;;;8.10;2.70;;;25.60;99.00;;;;;;5077601;28;20434;-78
2022/06/15 14:57:03;;;;;;;5.15;3.13;;;26.00;99.30;;;;;;5095159;27;20422;-79
2022/06/15 14:59:48;;;;;;;6.78;2.80;;;25.80;98.90;;;;;;5084419;27;20403;-79
2022/06/15 15:02:14;;;;;;;5.55;2.90;;;26.30;97.60;;;;;;5097776;27;20433;-79
2022/06/15 15:04:43;;;;;;;6.17;2.70;;;26.70;98.10;;;;;;5094392;27;20470;-79
2022/06/15 15:10:05;;;;;;;6.85;2.60;;;26.30;97.20;;;;;;5092907;28;20410;-79
2022/06/15 15:12:42;;;;;;;6.43;2.90;;;26.60;97.30;;;;;;5093441;28;20444;-80
2022/06/15 15:15:08;;;;;;;4.80;2.57;;;26.70;97.20;;;;;;5094572;28;20458;-79
2022/06/15 15:18:08;;;;;;;6.10;2.73;;;26.90;96.60;;;;;;5094465;28;20414;-79
2022/06/15 15:20:38;;;;;;;5.40;2.40;;;26.90;95.70;;;;;;5104165;28;20415;-79
2022/06/15 15:23:04;;;;;;;4.82;2.35;;;27.20;95.90;;;;;;5072566;28;20449;-79
2022/06/15 15:25:55;;;;;;;5.38;2.70;;;27.10;95.90;;;;;;5094256;28;20420;-79
2022/06/15 15:34:30;;;;;;;4.20;2.28;;;25.30;94.40;;;;;;5102075;28;20439;-78
2022/06/15 15:39:50;;;;;;;4.95;2.70;;;28.10;94.30;;;;;;5093310;28;20534;-79
2022/06/15 15:42:20;;;;;;;4.95;2.33;;;27.80;93.90;;;;;;5100073;28;20412;-79
2022/06/15 15:44:46;;;;;;;5.60;2.42;;;27.70;94.00;;;;;;5101942;28;20439;-79
2022/06/15 15:47:15;;;;;;;5.33;2.20;;;26.80;93.80;;;;;;5102509;28;20425;-78
2022/06/15 15:49:41;;;;;;;6.18;2.60;;;28.40;94.60;;;;;;5098117;28;20416;-78
2022/06/15 15:52:11;;;;;;;5.00;2.30;;;26.70;94.10;;;;;;5087409;28;20433;-78
2022/06/15 15:54:38;;;;;;;3.97;2.38;;;26.50;94.30;;;;;;5106175;28;20430;-79
2022/06/15 15:57:07;;;;;;;7.07;2.75;;;27.00;94.00;;;;;;5070751;28;20414;-79
2022/06/15 15:59:34;;;;;;;6.10;2.60;;;27.30;93.70;;;;;;5100861;28;20562;-78
2022/06/15 16:02:02;;;;;;;4.82;2.60;;;29.70;94.10;;;;;;5083091;28;20418;-78
2022/06/15 16:04:33;;;;;;;5.27;2.30;;;27.40;93.30;;;;;;5094395;28;20505;-79
2022/06/15 16:06:59;;;;;;;5.38;2.40;;;27.30;93.40;;;;;;5076115;28;20528;-79
2022/06/15 16:09:25;;;;;;;5.13;2.45;;;27.10;93.40;;;;;;5085552;28;20452;-79
2022/06/15 16:11:51;;;;;;;6.68;2.47;;;27.90;93.10;;;;;;5094979;28;20416;-79
2022/06/15 16:14:17;;;;;;;5.87;2.60;;;28.30;92.60;;;;;;5093083;28;20416;-79
2022/06/15 16:16:43;;;;;;;6.40;2.25;;;28.50;92.30;;;;;;5095259;28;20975;-79
2022/06/15 16:19:12;;;;;;;4.72;2.35;;;28.60;92.30;;;;;;5096873;28;20951;-79
2022/06/15 16:21:39;;;;;;;4.63;2.08;;;28.70;92.30;;;;;;5094763;28;20415;-79
2022/06/15 16:24:05;;;;;;;5.93;2.20;;;28.60;91.90;;;;;;5094456;28;20438;-79
2022/06/15 16:26:31;;;;;;;4.57;2.30;;;28.30;91.80;;;;;;5096991;28;20416;-79
2022/06/15 16:28:59;;;;;;;6.35;2.40;;;28.20;92.20;;;;;;5095518;28;20903;-79
2022/06/15 16:31:26;;;;;;;4.53;2.40;;;28.20;91.70;;;;;;5075260;28;21175;-80
2022/06/15 16:33:52;;;;;;;4.00;2.25;;;28.10;91.70;;;;;;5082938;28;20420;-79
2022/06/15 16:36:18;;;;;;;4.63;2.43;;;28.10;91.60;;;;;;5103332;28;20444;-79
2022/06/15 16:38:44;;;;;;;4.43;2.25;;;28.30;91.50;;;;;;5089645;28;20911;-80
2022/06/15 16:41:13;;;;;;;5.60;2.20;;;28.50;91.10;;;;;;5100121;28;20488;-79
2022/06/15 16:43:52;;;;;;;5.47;2.40;;;28.50;91.40;;;;;;5087038;28;20412;-80
2022/06/15 16:46:27;;;;;;;4.43;2.43;;;28.80;91.10;;;;;;5102805;28;21114;-80
2022/06/15 16:48:53;;;;;;;6.18;2.60;;;28.60;90.20;;;;;;5101421;28;20420;-80
2022/06/15 16:51:24;;;;;;;5.82;2.70;;;28.50;90.80;;;;;;5098133;28;20838;-80
2022/06/15 16:53:51;;;;;;;4.85;2.20;;;28.90;90.80;;;;;;5103958;28;20446;-80
2022/06/15 16:56:28;;;;;;;4.32;2.30;;;29.10;90.40;;;;;;5097424;28;20592;-80
2022/06/15 16:58:55;;;;;;;4.85;2.63;;;29.40;90.50;;;;;;5050426;28;20856;-80
2022/06/15 17:01:22;;;;;;;3.85;2.15;;;29.50;90.00;;;;;;5033794;28;20503;-80
2022/06/15 17:03:47;;;;;;;5.18;2.10;;;29.30;90.50;;;;;;5064451;28;20483;-80
2022/06/15 17:06:13;;;;;;;3.90;2.30;;;29.30;90.20;;;;;;5040414;28;20402;-79
2022/06/15 17:08:42;;;;;;;4.73;2.40;;;29.40;90.20;;;;;;5050372;28;20867;-79
2022/06/15 17:11:09;;;;;;;5.03;2.42;;;29.40;90.20;;;;;;5052372;28;20810;-79
2022/06/15 17:13:36;;;;;;;7.10;2.28;;;29.00;90.10;;;;;;5068146;28;20812;-80
2022/06/15 17:16:03;;;;;;;5.37;2.30;;;28.70;90.20;;;;;;5068213;28;20428;-80
2022/06/15 17:18:29;;;;;;;6.88;2.55;;;29.00;90.10;;;;;;5059487;28;20421;-80
2022/06/15 17:20:55;;;;;;;7.00;2.47;;;28.50;90.20;;;;;;5052383;28;20506;-80
2022/06/15 17:23:23;;;;;;;6.97;2.53;;;28.60;90.30;;;;;;5036150;28;20458;-79
2022/06/15 17:25:49;;;;;;;5.05;2.25;;;28.60;90.10;;;;;;5070270;28;21008;-79
2022/06/15 17:28:16;;;;;;;5.70;2.50;;;28.20;90.20;;;;;;5051747;28;20468;-79
2022/06/15 17:30:44;;;;;;;4.88;2.08;;;28.30;90.40;;;;;;5060463;28;20414;-79
2022/06/15 17:33:11;;;;;;;3.40;2.33;;;27.90;90.50;;;;;;5062611;28;20445;-79
2022/06/15 17:35:39;;;;;;;5.47;2.37;;;28.30;90.70;;;;;;5052039;28;20425;-79
2022/06/15 17:38:05;;;;;;;4.10;2.33;;;28.00;90.50;;;;;;5053208;28;20432;-79
2022/06/15 17:40:33;;;;;;;6.65;2.40;;;27.90;90.40;;;;;;5061907;28;20426;-79
2022/06/15 17:42:59;;;;;;;5.93;2.58;;;27.50;90.60;;;;;;5071885;28;20505;-79
2022/06/15 17:45:25;;;;;;;4.57;2.50;;;27.50;90.70;;;;;;5064817;28;20421;-79
2022/06/15 17:47:51;;;;;;;5.15;2.55;;;27.50;90.60;;;;;;5084293;28;20450;-79
2022/06/15 17:50:17;;;;;;;4.45;2.22;;;26.70;91.00;;;;;;5072430;28;20925;-78
2022/06/15 17:52:43;;;;;;;5.25;2.85;;;26.30;91.70;;;;;;5073872;28;20421;-79
2022/06/15 17:55:11;;;;;;;6.38;2.70;;;25.80;92.20;;;;;;5062745;28;20456;-79
2022/06/15 17:57:37;;;;;;;6.67;3.00;;;25.40;92.70;;;;;;5097560;28;20452;-73
2022/06/15 18:00:09;;;;;;;6.00;2.92;;;25.20;93.00;;;;;;5099845;28;20422;-73
2022/06/15 18:02:41;;;;;;;6.03;2.60;;;25.30;92.60;;;;;;5085347;28;20511;-73
2022/06/15 18:05:07;;;;;;;7.68;2.70;;;25.10;92.90;;;;;;5069576;28;20434;-73
2022/06/15 18:07:34;;;;;;;5.05;2.70;;;24.80;92.80;;;;;;5096274;28;20412;-73
2022/06/15 18:10:00;;;;;;;5.00;2.70;;;24.80;93.30;;;;;;5102037;28;20498;-73
2022/06/15 18:12:28;;;;;;;4.38;2.60;;;24.30;93.40;;;;;;5097238;28;20462;-73
2022/06/15 18:14:54;;;;;;;5.38;2.90;;;23.60;93.50;;;;;;5061058;28;20452;-73
2022/06/15 18:17:22;;;;;;;5.35;2.70;;;23.60;93.70;;;;;;5067067;28;20421;-73
2022/06/15 18:19:53;;;;;;;5.15;2.70;;;23.90;94.10;;;;;;5072885;28;20416;-73
2022/06/15 18:22:21;;;;;;;5.33;2.40;;;23.30;94.30;;;;;;5102056;28;20804;-73
2022/06/15 18:24:47;;;;;;;6.35;2.72;;;23.20;94.50;;;;;;5082943;28;20454;-74
2022/06/15 18:27:13;;;;;;;4.85;2.42;;;23.30;94.50;;;;;;5084060;28;20420;-74
2022/06/15 18:29:39;;;;;;;6.00;2.67;;;23.60;94.70;;;;;;5098088;28;20424;-74
2022/06/15 18:32:11;;;;;;;5.25;2.72;;;23.20;94.70;;;;;;5088173;28;20442;-74
2022/06/15 18:34:38;;;;;;;5.27;2.87;;;23.50;94.50;;;;;;5083659;28;20863;-74
2022/06/15 18:37:07;;;;;;;4.88;2.55;;;24.10;94.20;;;;;;5104496;28;20409;-74
2022/06/15 18:39:34;;;;;;;5.43;3.17;;;24.80;93.80;;;;;;5090648;28;20413;-74
2022/06/15 18:42:01;;;;;;;5.65;2.90;;;24.60;93.60;;;;;;5060828;28;20396;-74
2022/06/15 18:49:55;;;;;;;5.30;2.60;;;24.30;93.20;;;;;;5097633;28;20530;-74
2022/06/15 18:52:21;;;;;;;4.90;2.65;;;24.30;93.60;;;;;;5102645;28;20510;-74
2022/06/15 18:54:50;;;;;;;7.07;2.43;;;23.70;93.90;;;;;;5087462;28;21181;-74
2022/06/15 18:57:17;;;;;;;6.80;2.90;;;23.40;93.70;;;;;;5083816;28;21362;-74
2022/06/15 18:59:44;;;;;;;5.33;2.93;;;22.90;94.50;;;;;;5085535;28;20416;-74
2022/06/15 19:02:10;;;;;;;4.43;2.60;;;22.60;94.90;;;;;;5095239;28;20438;-74
2022/06/15 19:04:36;;;;;;;4.53;2.40;;;22.40;95.30;;;;;;5081104;28;20917;-73
2022/06/15 19:07:02;;;;;;;6.37;2.90;;;21.90;95.50;;;;;;5075161;28;20420;-73
2022/06/15 19:09:29;;;;;;;5.32;2.88;;;22.00;95.80;;;;;;5088974;28;20428;-79
2022/06/15 19:11:56;;;;;;;4.38;2.80;;;21.70;95.80;;;;;;5076545;28;20488;-79
2022/06/15 19:14:21;;;;;;;7.05;2.80;;;21.20;96.50;;;;;;5088963;28;20428;-73
2022/06/15 19:16:47;;;;;;;6.28;2.90;;;21.00;96.90;;;;;;5073513;28;20487;-74
2022/06/15 19:19:13;;;;;;;7.93;3.10;;;20.70;97.40;;;;;;5070714;28;20468;-79
2022/06/15 19:21:39;;;;;;;4.78;2.80;;;20.90;97.90;;;;;;5107836;28;20513;-80
2022/06/15 19:24:06;;;;;;;4.78;2.88;;;20.70;98.30;;;;;;5096862;28;20429;-79
2022/06/15 19:26:42;;;;;;;6.00;3.00;;;20.40;98.70;;;;;;5100788;27;20417;-79
2022/06/15 19:29:09;;;;;;;6.85;3.20;;;20.30;99.00;;;;;;5092727;28;20402;-79
2022/06/15 19:31:35;;;;;;;5.35;3.20;;;19.10;99.10;;;;;;5086997;28;20412;-79
2022/06/15 19:34:01;;;;;;;6.45;3.30;;;20.30;99.80;;;;;;5090690;28;20427;-79
2022/06/15 19:36:27;;;;;;;6.65;3.70;;;20.00;99.90;;;;;;5095960;28;20420;-79
2022/06/15 19:38:53;;;;;;;5.03;3.50;;;19.70;99.90;;;;;;5094879;28;20414;-79
2022/06/15 19:41:19;;;;;;;5.67;3.70;;;19.60;99.90;;;;;;5086058;28;20443;-79
2022/06/15 19:43:45;;;;;;;5.90;3.42;;;19.70;99.90;;;;;;5072330;28;20899;-79
2022/06/15 19:46:11;;;;;;;9.95;4.15;;;19.60;99.90;;;;;;5085719;28;20420;-74
2022/06/15 19:48:37;;;;;;;9.38;3.92;;;19.50;99.90;;;;;;5089368;28;20443;-74
2022/06/15 19:51:03;;;;;;;6.50;3.67;;;19.50;99.90;;;;;;5100515;28;20417;-74
2022/06/15 19:53:29;;;;;;;7.38;4.20;;;19.40;99.90;;;;;;5073107;28;20501;-74